createdAt,value
2018-03-04T00:00:58.054Z,39.08
2018-03-04T00:03:30.425Z,38.75
2018-03-04T00:06:04.646Z,38.22
2018-03-04T00:08:39.877Z,41.78
2018-03-04T00:11:12.655Z,43.90
2018-03-04T00:13:45.705Z,38.95
2018-03-04T00:16:21.395Z,43.53
2018-03-04T00:18:57.035Z,36.03
2018-03-04T00:21:29.625Z,50.80
2018-03-04T00:24:04.238Z,43.63
2018-03-04T00:26:35.765Z,46.10
2018-03-04T00:29:07.865Z,48.75
2018-03-04T00:31:39.105Z,50.00
2018-03-04T00:34:10.354Z,49.60
2018-03-04T00:36:45.735Z,47.20
2018-03-04T00:39:21.035Z,48.60
2018-03-04T00:41:53.605Z,48.30
2018-03-04T00:44:25.366Z,48.55
2018-03-04T00:47:01.515Z,50.08
2018-03-04T00:49:33.486Z,47.88
2018-03-04T00:52:07.485Z,50.53
2018-03-04T00:54:44.735Z,52.40
2018-03-04T00:57:24.015Z,54.00
2018-03-04T00:59:58.365Z,52.30
2018-03-04T01:02:29.505Z,52.95
2018-03-04T01:05:02.589Z,51.03
2018-03-04T01:07:36.286Z,52.78
2018-03-04T01:10:17.065Z,48.03
2018-03-04T01:12:50.355Z,46.45
2018-03-04T01:15:24.434Z,44.20
2018-03-04T01:17:58.466Z,36.30
2018-03-04T01:20:37.265Z,34.45
2018-03-04T01:23:09.564Z,31.42
2018-03-04T01:25:40.274Z,30.58
2018-03-04T01:28:14.635Z,34.05
2018-03-04T01:30:49.825Z,29.20
2018-03-04T01:33:26.295Z,39.53
2018-03-04T01:36:03.165Z,39.25
2018-03-04T01:38:40.254Z,43.25
2018-03-04T01:41:15.696Z,28.60
2018-03-04T01:43:48.744Z,30.37
2018-03-04T01:46:25.865Z,21.17
2018-03-04T01:48:59.355Z,18.52
2018-03-04T01:51:42.696Z,24.20
2018-03-04T01:54:14.885Z,25.17
2018-03-04T01:56:47.124Z,23.10
2018-03-04T01:59:18.795Z,27.95
2018-03-04T02:01:52.304Z,32.63
2018-03-04T02:04:32.025Z,31.52
2018-03-04T02:07:07.085Z,29.75
2018-03-04T02:09:42.904Z,23.95
2018-03-04T02:12:15.395Z,28.30
2018-03-04T02:14:46.865Z,20.05
2018-03-04T02:17:19.824Z,20.50
2018-03-04T02:19:51.505Z,17.50
2018-03-04T02:22:23.124Z,21.90
2018-03-04T02:24:55.795Z,18.80
2018-03-04T02:27:32.274Z,19.77
2018-03-04T02:30:12.666Z,19.37
2018-03-04T02:32:44.096Z,18.98
2018-03-04T02:35:23.216Z,19.80
2018-03-04T02:37:56.505Z,19.42
2018-03-04T02:40:29.115Z,21.23
2018-03-04T02:43:02.724Z,22.02
2018-03-04T02:45:35.085Z,24.30
2018-03-04T02:48:08.866Z,21.33
2018-03-04T02:50:40.714Z,23.12
2018-03-04T02:53:13.199Z,23.65
2018-03-04T02:55:51.615Z,21.75
2018-03-04T02:58:23.357Z,19.55
2018-03-04T03:00:56.659Z,21.42
2018-03-04T03:03:31.586Z,21.02
2018-03-04T03:06:03.552Z,23.75
2018-03-04T03:08:35.914Z,24.12
2018-03-04T03:11:09.415Z,23.67
2018-03-04T03:13:43.635Z,25.77
2018-03-04T03:16:19.684Z,25.88
2018-03-04T03:18:56.725Z,24.52
2018-03-04T03:21:30.265Z,22.75
2018-03-04T03:24:05.435Z,22.50
2018-03-04T03:26:37.675Z,23.25
2018-03-04T03:29:10.186Z,25.10
2018-03-04T03:31:43.656Z,18.62
2018-03-04T03:34:17.555Z,17.42
2018-03-04T03:36:49.005Z,18.75
2018-03-04T03:39:24.245Z,16.55
2018-03-04T03:41:55.772Z,14.00
2018-03-04T03:44:28.215Z,16.27
2018-03-04T03:47:00.165Z,12.20
2018-03-04T03:49:35.368Z,13.77
2018-03-04T03:52:10.195Z,13.95
2018-03-04T03:54:44.194Z,15.77
2018-03-04T03:57:20.255Z,15.82
2018-03-04T03:59:52.734Z,13.40
2018-03-04T04:02:28.515Z,13.27
2018-03-04T04:05:00.244Z,11.90
2018-03-04T04:07:34.565Z,12.77
2018-03-04T04:10:07.544Z,10.65
2018-03-04T04:12:39.794Z,9.25
2018-03-04T04:15:14.125Z,10.00
2018-03-04T04:17:46.524Z,8.65
2018-03-04T04:20:18.734Z,12.90
2018-03-04T04:22:52.724Z,11.65
2018-03-04T04:25:24.945Z,10.70
2018-03-04T04:27:59.254Z,10.23
2018-03-04T04:30:40.724Z,12.55
2018-03-04T04:33:12.335Z,11.07
2018-03-04T04:35:45.324Z,11.98
2018-03-04T04:38:18.614Z,10.27
2018-03-04T04:40:50.993Z,10.27
2018-03-04T04:43:24.755Z,9.32
2018-03-04T04:45:56.354Z,7.55
2018-03-04T04:48:31.864Z,9.25
2018-03-04T04:51:05.045Z,8.63
2018-03-04T04:53:38.445Z,10.57
2018-03-04T04:56:09.074Z,9.57
2018-03-04T04:58:42.675Z,7.90
2018-03-04T05:01:18.734Z,8.75
2018-03-04T05:03:52.265Z,8.85
2018-03-04T05:06:24.905Z,7.20
2018-03-04T05:08:57.094Z,9.80
2018-03-04T05:11:28.784Z,11.50
2018-03-04T05:14:03.147Z,10.98
2018-03-04T05:16:36.129Z,13.98
2018-03-04T05:19:09.456Z,16.48
2018-03-04T05:21:41.489Z,14.25
2018-03-04T05:24:14.887Z,14.25
2018-03-04T05:26:46.736Z,14.00
2018-03-04T05:29:20.645Z,11.93
2018-03-04T05:31:51.487Z,12.25
2018-03-04T05:34:27.035Z,11.20
2018-03-04T05:36:59.295Z,10.65
2018-03-04T05:39:35.392Z,15.35
2018-03-04T05:42:08.236Z,15.73
2018-03-04T05:44:42.046Z,12.88
2018-03-04T05:47:15.746Z,15.50
2018-03-04T05:49:54.265Z,16.05
2018-03-04T05:52:30.125Z,12.48
2018-03-04T05:55:02.496Z,12.20
2018-03-04T05:57:34.747Z,15.40
2018-03-04T06:00:06.758Z,17.33
2018-03-04T06:02:38.806Z,18.25
2018-03-04T06:05:11.565Z,17.15
2018-03-04T06:07:42.815Z,16.55
2018-03-04T06:10:24.325Z,18.25
2018-03-04T06:12:57.896Z,15.10
2018-03-04T06:15:31.185Z,17.65
2018-03-04T06:18:01.756Z,17.52
2018-03-04T06:20:38.996Z,15.15
2018-03-04T06:23:11.376Z,20.35
2018-03-04T06:25:44.456Z,18.27
2018-03-04T06:28:16.806Z,17.77
2018-03-04T06:30:52.745Z,19.70
2018-03-04T06:33:25.071Z,17.95
2018-03-04T06:35:58.875Z,15.70
2018-03-04T06:38:32.865Z,16.50
2018-03-04T06:41:06.674Z,16.20
2018-03-04T06:43:41.096Z,14.75
2018-03-04T06:46:13.158Z,13.43
2018-03-04T06:48:44.196Z,14.18
2018-03-04T06:51:15.436Z,12.23
2018-03-04T06:53:47.652Z,12.00
2018-03-04T06:56:20.195Z,11.27
2018-03-04T06:58:57.576Z,14.38
2018-03-04T07:01:30.255Z,12.30
2018-03-04T07:04:01.916Z,14.45
2018-03-04T07:06:34.086Z,12.65
2018-03-04T07:09:08.195Z,14.40
2018-03-04T07:11:39.535Z,12.80
2018-03-04T07:14:11.916Z,11.43
2018-03-04T07:16:51.445Z,13.60
2018-03-04T07:19:24.955Z,15.02
2018-03-04T07:21:58.174Z,15.63
2018-03-04T07:24:32.555Z,16.62
2018-03-04T07:27:04.516Z,16.42
2018-03-04T07:29:40.604Z,19.73
2018-03-04T07:32:13.866Z,17.17
2018-03-04T07:34:48.755Z,16.40
2018-03-04T07:37:27.415Z,19.73
2018-03-04T07:39:59.075Z,25.70
2018-03-04T07:42:29.706Z,22.73
2018-03-04T07:45:09.483Z,18.40
2018-03-04T07:47:42.525Z,27.00
2018-03-04T07:50:14.599Z,16.05
2018-03-04T07:52:47.067Z,19.48
2018-03-04T07:55:20.495Z,16.80
2018-03-04T07:58:01.025Z,21.05
2018-03-04T08:00:32.894Z,16.02
2018-03-04T08:03:04.825Z,22.50
2018-03-04T08:05:36.506Z,21.73
2018-03-04T08:08:09.216Z,25.88
2018-03-04T08:10:41.185Z,18.75
2018-03-04T08:13:13.146Z,17.15
2018-03-04T08:15:48.146Z,16.12
2018-03-04T08:18:19.625Z,17.77
2018-03-04T08:20:53.496Z,15.65
2018-03-04T08:23:25.975Z,14.13
2018-03-04T08:26:04.194Z,15.68
2018-03-04T08:28:40.170Z,12.88
2018-03-04T08:31:11.995Z,17.30
2018-03-04T08:33:43.956Z,13.05
2018-03-04T08:36:17.966Z,12.50
2018-03-04T08:38:50.235Z,9.52
2018-03-04T08:41:26.296Z,13.02
2018-03-04T08:43:58.766Z,11.32
2018-03-04T08:46:30.526Z,9.18
2018-03-04T08:49:08.736Z,12.07
2018-03-04T08:51:47.765Z,12.65
2018-03-04T08:54:20.134Z,16.37
2018-03-04T08:56:52.707Z,14.00
2018-03-04T08:59:30.416Z,18.02
2018-03-04T09:02:02.365Z,13.35
2018-03-04T09:04:37.296Z,14.23
2018-03-04T09:07:10.586Z,15.45
2018-03-04T09:09:51.261Z,14.63
2018-03-04T09:12:25.106Z,13.73
2018-03-04T09:14:59.485Z,11.10
2018-03-04T09:17:32.606Z,8.07
2018-03-04T09:20:07.196Z,7.82
2018-03-04T09:22:43.555Z,7.78
2018-03-04T09:25:15.415Z,7.80
2018-03-04T09:27:47.314Z,6.50
2018-03-04T09:30:21.185Z,6.95
2018-03-04T09:32:52.535Z,7.22
2018-03-04T09:35:25.206Z,6.90
2018-03-04T09:37:59.525Z,8.07
2018-03-04T09:40:31.696Z,6.35
2018-03-04T09:43:03.969Z,6.87
2018-03-04T09:45:42.874Z,5.53
2018-03-04T09:48:15.965Z,7.60
2018-03-04T09:50:48.648Z,6.45
2018-03-04T09:53:22.096Z,5.85
2018-03-04T09:55:53.666Z,6.78
2018-03-04T09:58:23.925Z,8.20
2018-03-04T10:00:56.327Z,6.68
2018-03-04T10:03:29.998Z,9.20
2018-03-04T10:06:01.987Z,8.35
2018-03-04T10:08:35.765Z,7.15
2018-03-04T10:11:12.166Z,6.68
2018-03-04T10:13:46.226Z,6.07
2018-03-04T10:16:19.788Z,5.53
2018-03-04T10:18:52.656Z,5.70
2018-03-04T10:21:23.056Z,7.32
2018-03-04T10:23:54.825Z,5.62
2018-03-04T10:26:29.745Z,5.22
2018-03-04T10:29:01.087Z,6.07
2018-03-04T10:31:35.795Z,6.30
2018-03-04T10:34:13.305Z,5.47
2018-03-04T10:36:45.256Z,5.30
2018-03-04T10:39:19.714Z,5.50
2018-03-04T10:41:51.135Z,5.12
2018-03-04T10:44:22.985Z,4.82
2018-03-04T10:46:54.755Z,5.22
2018-03-04T10:49:27.426Z,4.60
2018-03-04T10:51:59.285Z,6.75
2018-03-04T10:54:30.426Z,7.57
2018-03-04T10:57:07.786Z,5.07
2018-03-04T10:59:41.316Z,5.37
2018-03-04T11:02:18.736Z,5.00
2018-03-04T11:04:51.076Z,5.35
2018-03-04T11:07:26.026Z,14.60
2018-03-04T11:09:57.976Z,21.83
2018-03-04T11:12:33.316Z,21.00
2018-03-04T11:15:06.786Z,17.35
2018-03-04T11:17:38.686Z,14.52
2018-03-04T11:20:10.026Z,14.75
2018-03-04T11:22:41.856Z,11.75
2018-03-04T11:25:18.346Z,16.10
2018-03-04T11:27:51.644Z,22.85
2018-03-04T11:30:22.676Z,38.55
2018-03-04T11:32:54.376Z,22.00
2018-03-04T11:35:30.810Z,19.00
2018-03-04T11:38:03.105Z,25.05
2018-03-04T11:40:35.344Z,23.10
2018-03-04T11:43:08.757Z,22.58
2018-03-04T11:45:41.665Z,20.73
2018-03-04T11:48:13.276Z,22.58
2018-03-04T11:50:47.895Z,19.17
2018-03-04T11:53:18.116Z,16.87
2018-03-04T11:55:52.458Z,17.85
2018-03-04T11:58:26.346Z,15.48
2018-03-04T12:00:57.295Z,15.05
2018-03-04T12:03:28.645Z,18.00
2018-03-04T12:06:02.439Z,15.80
2018-03-04T12:08:36.836Z,7.18
2018-03-04T12:11:10.147Z,11.35
2018-03-04T12:13:42.407Z,22.95
2018-03-04T12:16:14.605Z,20.52
2018-03-04T12:18:50.226Z,22.00
2018-03-04T12:21:21.364Z,23.77
2018-03-04T12:23:53.237Z,20.88
2018-03-04T12:26:26.754Z,20.20
2018-03-04T12:29:01.375Z,15.60
2018-03-04T12:31:32.935Z,17.48
2018-03-04T12:34:05.075Z,14.68
2018-03-04T12:36:46.667Z,9.60
2018-03-04T12:39:19.137Z,10.50
2018-03-04T12:41:54.266Z,11.82
2018-03-04T12:44:30.945Z,14.82
2018-03-04T12:47:03.425Z,16.12
2018-03-04T12:49:35.185Z,13.73
2018-03-04T12:52:07.034Z,17.60
2018-03-04T12:54:40.635Z,14.00
2018-03-04T12:57:12.005Z,14.35
2018-03-04T12:59:44.246Z,15.18
2018-03-04T13:02:17.038Z,17.20
2018-03-04T13:04:48.790Z,18.87
2018-03-04T13:07:26.805Z,17.55
2018-03-04T13:10:00.429Z,19.92
2018-03-04T13:12:37.508Z,18.52
2018-03-04T13:15:12.705Z,21.87
2018-03-04T13:17:50.296Z,18.05
2018-03-04T13:20:22.056Z,28.38
2018-03-04T13:22:52.275Z,31.60
2018-03-04T13:25:24.768Z,29.52
2018-03-04T13:27:57.695Z,27.40
2018-03-04T13:30:28.097Z,33.67
2018-03-04T13:33:02.077Z,32.88
2018-03-04T13:35:39.566Z,30.90
2018-03-04T13:38:11.936Z,28.87
2018-03-04T13:40:45.816Z,29.83
2018-03-04T13:43:17.295Z,29.98
2018-03-04T13:45:49.154Z,31.40
2018-03-04T13:48:20.616Z,34.25
2018-03-04T13:50:53.855Z,30.92
2018-03-04T13:53:31.495Z,32.95
2018-03-04T13:56:06.936Z,27.83
2018-03-04T13:58:37.285Z,28.02
2018-03-04T14:01:08.505Z,35.75
2018-03-04T14:03:40.225Z,39.95
2018-03-04T14:06:15.870Z,30.90
2018-03-04T14:08:49.506Z,30.75
2018-03-04T14:11:21.166Z,30.75
2018-03-04T14:13:54.836Z,29.27
2018-03-04T14:16:26.518Z,35.33
2018-03-04T14:18:59.268Z,35.63
2018-03-04T14:21:31.366Z,32.30
2018-03-04T14:24:06.816Z,37.42
2018-03-04T14:26:40.456Z,36.25
2018-03-04T14:29:15.694Z,33.83
2018-03-04T14:31:45.845Z,33.42
2018-03-04T14:34:17.526Z,31.73
2018-03-04T14:36:48.785Z,29.70
2018-03-04T14:39:20.826Z,30.25
2018-03-04T14:41:56.186Z,30.00
2018-03-04T14:44:28.446Z,39.50
2018-03-04T14:47:03.275Z,26.35
2018-03-04T14:49:34.009Z,31.15
2018-03-04T14:52:06.275Z,27.45
2018-03-04T14:54:40.505Z,28.92
2018-03-04T14:57:12.385Z,27.60
2018-03-04T14:59:46.045Z,27.67
2018-03-04T15:02:20.805Z,28.65
2018-03-04T15:04:54.376Z,35.63
2018-03-04T15:07:26.745Z,24.25
2018-03-04T15:09:57.586Z,28.27
2018-03-04T15:12:35.602Z,25.35
2018-03-04T15:15:06.416Z,25.88
2018-03-04T15:17:37.865Z,23.55
2018-03-04T15:20:09.625Z,22.55
2018-03-04T15:22:43.325Z,23.73
2018-03-04T15:25:15.878Z,23.65
2018-03-04T15:27:48.336Z,27.17
2018-03-04T15:30:24.166Z,21.17
2018-03-04T15:32:57.255Z,25.52
2018-03-04T15:35:32.845Z,24.45
2018-03-04T15:38:05.344Z,24.12
2018-03-04T15:40:39.567Z,26.77
2018-03-04T15:43:12.376Z,20.52
2018-03-04T15:45:44.005Z,23.10
2018-03-04T15:48:15.685Z,48.92
2018-03-04T15:50:52.246Z,89.75
2018-03-04T15:53:24.875Z,25.67
2018-03-04T15:56:01.365Z,21.58
2018-03-04T15:58:33.255Z,19.60
2018-03-04T16:01:05.177Z,19.60
2018-03-04T16:03:41.156Z,23.23
2018-03-04T16:06:15.556Z,20.05
2018-03-04T16:08:47.455Z,23.77
2018-03-04T16:11:18.808Z,22.50
2018-03-04T16:13:51.036Z,27.77
2018-03-04T16:16:25.145Z,14.80
2018-03-04T16:19:01.205Z,17.85
2018-03-04T16:21:33.165Z,19.85
2018-03-04T16:24:04.436Z,20.20
2018-03-04T16:26:39.445Z,22.25
2018-03-04T16:29:11.005Z,20.37
2018-03-04T16:31:48.086Z,22.92
2018-03-04T16:34:23.236Z,18.42
2018-03-04T16:36:56.861Z,21.77
2018-03-04T16:39:28.406Z,21.85
2018-03-04T16:42:02.615Z,39.92
2018-03-04T16:44:34.345Z,15.48
2018-03-04T16:47:05.736Z,18.12
2018-03-04T16:49:39.397Z,19.25
2018-03-04T16:52:12.324Z,14.98
2018-03-04T16:54:45.367Z,16.17
2018-03-04T16:57:16.506Z,15.73
2018-03-04T16:59:49.185Z,19.23
2018-03-04T17:02:22.476Z,16.30
2018-03-04T17:04:58.135Z,13.98
2018-03-04T17:07:29.615Z,16.85
2018-03-04T17:10:03.386Z,16.00
2018-03-04T17:12:36.565Z,16.48
2018-03-04T17:15:14.485Z,18.83
2018-03-04T17:17:45.916Z,17.20
2018-03-04T17:20:20.236Z,17.17
2018-03-04T17:22:56.095Z,15.13
2018-03-04T17:25:28.085Z,19.50
2018-03-04T17:28:03.216Z,15.90
2018-03-04T17:30:36.876Z,13.25
2018-03-04T17:33:12.855Z,16.87
2018-03-04T17:35:44.847Z,15.43
2018-03-04T17:38:17.934Z,22.73
2018-03-04T17:40:50.405Z,17.08
2018-03-04T17:43:25.525Z,19.12
2018-03-04T17:46:00.136Z,22.98
2018-03-04T17:48:32.726Z,13.73
2018-03-04T17:51:04.156Z,15.63
2018-03-04T17:53:36.026Z,10.60
2018-03-04T17:56:07.265Z,11.95
2018-03-04T17:58:39.256Z,8.30
2018-03-04T18:01:11.399Z,6.55
2018-03-04T18:03:43.856Z,5.05
2018-03-04T18:06:16.875Z,9.50
2018-03-04T18:08:49.453Z,7.10
2018-03-04T18:11:23.745Z,8.43
2018-03-04T18:13:55.297Z,5.53
2018-03-04T18:16:28.886Z,5.32
2018-03-04T18:19:03.516Z,7.50
2018-03-04T18:21:37.636Z,4.82
2018-03-04T18:24:08.615Z,4.90
2018-03-04T18:26:42.856Z,6.07
2018-03-04T18:29:17.316Z,4.18
2018-03-04T18:31:51.948Z,10.35
2018-03-04T18:34:31.202Z,4.97
2018-03-04T18:37:04.596Z,8.50
2018-03-04T18:39:39.886Z,9.52
2018-03-04T18:42:12.685Z,6.50
2018-03-04T18:44:46.696Z,7.65
2018-03-04T18:47:24.496Z,6.80
2018-03-04T18:49:56.665Z,5.70
2018-03-04T18:52:34.156Z,9.88
2018-03-04T18:55:06.355Z,11.35
2018-03-04T18:57:43.715Z,12.32
2018-03-04T19:00:14.445Z,10.43
2018-03-04T19:02:46.756Z,9.65
2018-03-04T19:05:19.186Z,15.20
2018-03-04T19:07:51.856Z,10.30
2018-03-04T19:10:23.876Z,6.95
2018-03-04T19:12:54.965Z,8.82
2018-03-04T19:15:38.131Z,12.40
2018-03-04T19:18:12.436Z,10.25
2018-03-04T19:20:44.375Z,7.35
2018-03-04T19:23:20.835Z,5.97
2018-03-04T19:25:54.136Z,7.75
2018-03-04T19:28:27.645Z,6.32
2018-03-04T19:31:02.908Z,10.55
2018-03-04T19:33:35.654Z,8.95
2018-03-04T19:36:07.617Z,8.20
2018-03-04T19:38:40.635Z,3.85
2018-03-04T19:41:13.605Z,5.30
2018-03-04T19:43:48.738Z,7.75
2018-03-04T19:46:19.886Z,10.40
2018-03-04T19:48:53.096Z,6.05
2018-03-04T19:51:26.485Z,6.53
2018-03-04T19:54:00.495Z,8.35
2018-03-04T19:56:35.033Z,6.70
2018-03-04T19:59:10.626Z,19.77
2018-03-04T20:01:48.555Z,6.22
2018-03-04T20:04:22.476Z,9.82
2018-03-04T20:06:54.333Z,4.70
2018-03-04T20:09:36.495Z,4.47
2018-03-04T20:12:07.336Z,8.98
2018-03-04T20:14:41.646Z,11.75
2018-03-04T20:17:17.896Z,8.93
2018-03-04T20:19:50.616Z,8.98
2018-03-04T20:22:29.856Z,10.25
2018-03-04T20:25:02.496Z,12.95
2018-03-04T20:27:36.816Z,11.70
2018-03-04T20:30:11.276Z,13.20
2018-03-04T20:32:43.766Z,14.15
2018-03-04T20:35:23.666Z,14.15
2018-03-04T20:37:57.497Z,16.92
2018-03-04T20:40:28.726Z,14.35
2018-03-04T20:42:59.766Z,16.55
2018-03-04T20:45:30.887Z,17.05
2018-03-04T20:48:10.546Z,18.02
2018-03-04T20:50:42.187Z,20.62
2018-03-04T20:53:15.525Z,25.15
2018-03-04T20:55:48.366Z,27.10
2018-03-04T20:58:20.257Z,25.42
2018-03-04T21:00:51.955Z,28.52
2018-03-04T21:03:23.910Z,23.33
2018-03-04T21:05:55.026Z,23.67
2018-03-04T21:08:27.936Z,26.58
2018-03-04T21:10:59.316Z,27.30
2018-03-04T21:13:31.176Z,27.87
2018-03-04T21:16:02.896Z,25.50
2018-03-04T21:18:36.018Z,34.53
2018-03-04T21:21:09.355Z,26.90
2018-03-04T21:23:41.787Z,26.45
2018-03-04T21:26:14.469Z,24.55
2018-03-04T21:28:47.146Z,29.20
2018-03-04T21:31:19.087Z,27.55
2018-03-04T21:33:51.385Z,26.98
2018-03-04T21:36:23.604Z,25.15
2018-03-04T21:38:59.386Z,26.35
2018-03-04T21:41:31.610Z,25.83
2018-03-04T21:44:11.896Z,24.37
2018-03-04T21:46:45.217Z,25.00
2018-03-04T21:49:17.286Z,24.20
2018-03-04T21:51:49.586Z,21.23
2018-03-04T21:54:28.265Z,21.27
2018-03-04T21:57:00.029Z,18.70
2018-03-04T21:59:38.886Z,23.25
2018-03-04T22:02:12.966Z,19.33
2018-03-04T22:04:45.437Z,21.50
2018-03-04T22:07:18.835Z,21.30
2018-03-04T22:09:52.115Z,21.00
2018-03-04T22:12:24.286Z,18.87
2018-03-04T22:14:57.377Z,21.95
2018-03-04T22:17:31.296Z,20.05
2018-03-04T22:20:04.375Z,19.05
2018-03-04T22:22:41.347Z,21.87
2018-03-04T22:25:20.588Z,22.62
2018-03-04T22:27:53.568Z,21.02
2018-03-04T22:30:28.595Z,20.67
2018-03-04T22:33:02.405Z,19.58
2018-03-04T22:35:34.275Z,17.92
2018-03-04T22:38:07.056Z,19.92
2018-03-04T22:40:40.435Z,20.73
2018-03-04T22:43:12.516Z,18.45
2018-03-04T22:45:46.906Z,17.90
2018-03-04T22:48:20.425Z,18.42
2018-03-04T22:50:53.235Z,18.75
2018-03-04T22:53:27.736Z,19.48
2018-03-04T22:56:02.935Z,15.07
2018-03-04T22:58:37.386Z,15.57
2018-03-04T23:01:10.576Z,15.35
2018-03-04T23:03:47.695Z,12.27
2018-03-04T23:06:26.917Z,15.23
2018-03-04T23:09:02.545Z,14.43
2018-03-04T23:11:33.496Z,14.10
2018-03-04T23:14:04.558Z,14.10
2018-03-04T23:16:36.985Z,16.40
2018-03-04T23:19:10.026Z,15.13
2018-03-04T23:21:42.905Z,14.05
2018-03-04T23:24:16.096Z,13.07
2018-03-04T23:26:48.316Z,14.10
2018-03-04T23:29:19.926Z,15.30
2018-03-04T23:31:52.249Z,13.05
2018-03-04T23:34:26.456Z,12.65
2018-03-04T23:36:57.497Z,14.50
2018-03-04T23:39:29.365Z,15.45
2018-03-04T23:42:01.226Z,11.35
2018-03-04T23:44:34.106Z,10.93
2018-03-04T23:47:09.136Z,20.67
2018-03-04T23:49:43.455Z,11.88
2018-03-04T23:52:17.486Z,12.65
2018-03-04T23:54:51.476Z,9.55
2018-03-04T23:57:23.926Z,7.18
2018-03-04T23:59:58.475Z,8.57
